createdAt,value
2022-08-14T00:02:33.248Z,10.45
2022-08-14T00:05:33.526Z,10.07
2022-08-14T00:08:44.408Z,11.40
2022-08-14T00:11:43.619Z,10.52
2022-08-14T00:14:41.061Z,10.32
2022-08-14T00:17:48.448Z,12.77
2022-08-14T00:20:51.158Z,11.20
2022-08-14T00:23:53.996Z,10.85
2022-08-14T00:26:52.647Z,9.77
2022-08-14T00:32:50.610Z,11.95
2022-08-14T00:36:36.650Z,9.90
2022-08-14T00:39:15.125Z,10.43
2022-08-14T00:42:52.334Z,9.05
2022-08-14T00:45:37.038Z,17.52
2022-08-14T00:48:36.935Z,15.93
2022-08-14T00:51:38.328Z,12.75
2022-08-14T00:54:38.837Z,11.35
2022-08-14T00:57:39.129Z,11.80
2022-08-14T01:00:47.282Z,12.65
2022-08-14T01:03:52.707Z,9.63
2022-08-14T01:06:51.999Z,10.85
2022-08-14T01:09:58.835Z,10.07
2022-08-14T01:12:55.998Z,8.18
2022-08-14T01:16:02.684Z,10.20
2022-08-14T01:19:19.854Z,8.68
2022-08-14T01:22:18.809Z,9.23
2022-08-14T01:25:16.027Z,10.43
2022-08-14T01:28:47.211Z,9.90
2022-08-14T01:31:38.313Z,10.90
2022-08-14T01:35:18.069Z,10.50
2022-08-14T01:37:56.308Z,11.98
2022-08-14T01:40:54.335Z,12.07
2022-08-14T01:44:02.409Z,10.15
2022-08-14T01:47:05.890Z,10.50
2022-08-14T01:50:05.781Z,10.45
2022-08-14T01:53:03.445Z,11.48
2022-08-14T01:56:05.305Z,13.13
2022-08-14T01:59:26.763Z,9.98
2022-08-14T02:02:37.328Z,12.13
2022-08-14T02:05:38.608Z,11.52
2022-08-14T02:08:37.951Z,16.42
2022-08-14T02:11:54.375Z,15.00
2022-08-14T02:15:00.716Z,12.65
2022-08-14T02:18:01.498Z,10.43
2022-08-14T02:20:59.549Z,12.20
2022-08-14T02:23:57.038Z,11.00
2022-08-14T02:26:58.361Z,9.77
2022-08-14T02:30:12.267Z,10.38
2022-08-14T02:33:10.822Z,11.90
2022-08-14T02:37:02.552Z,10.10
2022-08-14T02:39:27.756Z,10.13
2022-08-14T02:42:37.202Z,9.60
2022-08-14T02:45:38.784Z,11.48
2022-08-14T02:49:03.121Z,11.02
2022-08-14T02:52:00.026Z,11.38
2022-08-14T02:54:57.505Z,11.50
2022-08-14T02:58:03.272Z,11.60
2022-08-14T03:01:01.471Z,8.73
2022-08-14T03:03:59.517Z,10.82
2022-08-14T03:07:06.687Z,10.43
2022-08-14T03:10:26.968Z,10.93
2022-08-14T03:13:23.939Z,10.48
2022-08-14T03:16:26.906Z,12.27
2022-08-14T03:19:23.921Z,10.95
2022-08-14T03:22:20.960Z,11.88
2022-08-14T03:25:18.398Z,7.85
2022-08-14T03:28:32.882Z,10.02
2022-08-14T03:31:30.498Z,11.60
2022-08-14T03:34:47.677Z,11.10
2022-08-14T03:39:10.505Z,10.13
2022-08-14T03:41:01.791Z,9.63
2022-08-14T03:45:26.419Z,11.35
2022-08-14T03:47:19.804Z,10.82
2022-08-14T03:50:24.273Z,11.82
2022-08-14T03:53:28.137Z,11.48
2022-08-14T03:56:30.058Z,8.70
2022-08-14T03:59:28.634Z,10.27
2022-08-14T04:02:32.296Z,11.45
2022-08-14T04:05:43.149Z,10.27
2022-08-14T04:08:45.718Z,12.38
2022-08-14T04:11:43.745Z,11.68
2022-08-14T04:14:40.678Z,11.93
2022-08-14T04:17:39.078Z,11.80
2022-08-14T04:20:54.808Z,10.77
2022-08-14T04:23:57.346Z,11.95
2022-08-14T04:26:55.650Z,11.88
2022-08-14T04:29:53.267Z,10.98
2022-08-14T04:33:01.886Z,12.05
2022-08-14T04:36:01.509Z,10.38
2022-08-14T04:39:17.823Z,13.00
2022-08-14T04:42:33.574Z,11.27
2022-08-14T04:45:36.313Z,9.32
2022-08-14T04:48:42.873Z,7.63
2022-08-14T04:51:46.939Z,11.75
2022-08-14T04:54:54.474Z,10.45
2022-08-14T04:57:52.159Z,9.15
2022-08-14T05:00:50.926Z,9.07
2022-08-14T05:03:49.623Z,11.45
2022-08-14T05:06:49.345Z,11.07
2022-08-14T05:09:47.971Z,10.73
2022-08-14T05:13:14.231Z,11.80
2022-08-14T05:16:05.902Z,12.23
2022-08-14T05:19:17.738Z,11.45
2022-08-14T05:22:21.653Z,11.90
2022-08-14T05:25:20.051Z,12.88
2022-08-14T05:28:22.096Z,12.38
2022-08-14T05:31:20.783Z,12.85
2022-08-14T05:34:18.016Z,11.23
2022-08-14T05:37:15.944Z,12.93
2022-08-14T05:40:12.822Z,12.30
2022-08-14T05:43:10.425Z,13.15
2022-08-14T05:46:18.432Z,12.70
2022-08-14T05:49:15.444Z,12.55
2022-08-14T05:52:17.982Z,12.73
2022-08-14T05:55:15.630Z,12.65
2022-08-14T05:58:13.899Z,12.63
2022-08-14T06:01:13.670Z,12.40
2022-08-14T06:04:11.366Z,12.38
2022-08-14T06:07:09.486Z,12.63
2022-08-14T06:10:09.598Z,11.18
2022-08-14T06:13:07.788Z,12.13
2022-08-14T06:16:06.274Z,12.52
2022-08-14T06:19:03.150Z,12.43
2022-08-14T06:22:02.146Z,12.10
2022-08-14T06:24:59.654Z,11.35
2022-08-14T06:28:00.901Z,11.25
2022-08-14T06:31:00.941Z,11.50
2022-08-14T06:35:09.438Z,11.27
2022-08-14T06:37:17.064Z,11.93
2022-08-14T06:40:27.345Z,11.27
2022-08-14T06:43:31.779Z,11.00
2022-08-14T06:46:34.135Z,8.73
2022-08-14T06:49:42.722Z,10.38
2022-08-14T06:52:50.309Z,10.75
2022-08-14T06:55:58.077Z,10.88
2022-08-14T06:58:56.421Z,10.07
2022-08-14T07:02:13.678Z,10.68
2022-08-14T07:05:33.644Z,10.80
2022-08-14T07:08:32.176Z,10.85
2022-08-14T07:11:29.622Z,9.82
2022-08-14T07:14:26.670Z,10.05
2022-08-14T07:17:23.509Z,9.90
2022-08-14T07:20:31.412Z,9.60
2022-08-14T07:23:31.429Z,9.93
2022-08-14T07:26:29.519Z,9.90
2022-08-14T07:29:26.551Z,9.35
2022-08-14T07:32:34.043Z,10.10
2022-08-14T07:35:42.815Z,8.02
2022-08-14T07:38:52.329Z,9.02
2022-08-14T07:41:49.618Z,7.97
2022-08-14T07:44:50.387Z,8.07
2022-08-14T07:47:47.662Z,8.27
2022-08-14T07:50:46.444Z,6.65
2022-08-14T07:53:44.998Z,7.57
2022-08-14T07:56:48.750Z,7.50
2022-08-14T07:59:49.423Z,8.15
2022-08-14T08:02:53.129Z,7.03
2022-08-14T08:05:54.022Z,7.63
2022-08-14T08:09:01.270Z,7.95
2022-08-14T08:12:04.956Z,7.80
2022-08-14T08:15:07.139Z,7.72
2022-08-14T08:18:27.257Z,7.68
2022-08-14T08:21:27.059Z,6.43
2022-08-14T08:24:24.122Z,6.13
2022-08-14T08:27:21.436Z,6.90
2022-08-14T08:30:18.519Z,6.82
2022-08-14T08:33:16.423Z,7.20
2022-08-14T08:36:18.881Z,7.13
2022-08-14T08:39:22.793Z,7.05
2022-08-14T08:42:31.478Z,7.00
2022-08-14T08:45:36.752Z,6.90
2022-08-14T08:48:53.592Z,7.00
2022-08-14T08:51:51.047Z,6.95
2022-08-14T08:54:55.950Z,7.43
2022-08-14T08:58:01.186Z,6.53
2022-08-14T09:01:00.580Z,5.80
2022-08-14T09:04:04.572Z,5.77
2022-08-14T09:07:11.664Z,5.15
2022-08-14T09:10:09.108Z,5.05
2022-08-14T09:13:11.566Z,4.68
2022-08-14T09:16:19.302Z,4.53
2022-08-14T09:19:17.832Z,5.70
2022-08-14T09:22:35.405Z,5.60
2022-08-14T09:25:59.869Z,3.90
2022-08-14T09:28:49.904Z,5.13
2022-08-14T09:31:53.423Z,4.72
2022-08-14T09:35:13.028Z,5.50
2022-08-14T09:38:31.994Z,5.50
2022-08-14T09:42:17.470Z,5.82
2022-08-14T09:45:40.037Z,5.38
2022-08-14T09:49:04.125Z,5.40
2022-08-14T09:52:33.161Z,5.00
2022-08-14T09:55:41.622Z,5.80
2022-08-14T09:58:46.266Z,5.72
2022-08-14T10:01:46.156Z,5.22
2022-08-14T10:05:11.586Z,6.05
2022-08-14T10:08:26.299Z,6.22
2022-08-14T10:11:34.958Z,5.90
2022-08-14T10:14:36.682Z,5.57
2022-08-14T10:17:38.873Z,5.85
2022-08-14T10:21:01.570Z,6.38
2022-08-14T10:23:58.556Z,6.15
2022-08-14T10:27:00.955Z,6.28
2022-08-14T10:30:04.649Z,6.10
2022-08-14T10:33:01.525Z,6.22
2022-08-14T10:36:03.875Z,6.57
2022-08-14T10:39:04.935Z,5.05
2022-08-14T10:42:16.608Z,5.85
2022-08-14T10:45:25.574Z,5.55
2022-08-14T10:48:24.131Z,6.45
2022-08-14T10:51:41.666Z,6.30
2022-08-14T10:54:47.314Z,6.50
2022-08-14T10:57:51.203Z,5.25
2022-08-14T11:01:00.961Z,4.47
2022-08-14T11:03:58.744Z,5.45
2022-08-14T11:06:56.815Z,4.50
2022-08-14T11:10:00.268Z,5.60
2022-08-14T11:12:57.713Z,6.18
2022-08-14T11:16:00.443Z,5.78
2022-08-14T11:18:59.637Z,5.85
2022-08-14T11:22:00.969Z,5.30
2022-08-14T11:25:06.452Z,6.05
2022-08-14T11:28:05.691Z,5.28
2022-08-14T11:31:15.671Z,4.15
2022-08-14T11:34:32.199Z,6.03
2022-08-14T11:37:40.561Z,4.63
2022-08-14T11:40:39.533Z,5.30
2022-08-14T11:43:57.705Z,6.05
2022-08-14T11:46:55.815Z,5.20
2022-08-14T11:49:53.367Z,4.80
2022-08-14T11:52:57.253Z,6.50
2022-08-14T11:56:04.389Z,5.15
2022-08-14T11:59:03.570Z,5.72
2022-08-14T12:03:00.142Z,6.50
2022-08-14T12:05:42.423Z,6.30
2022-08-14T12:08:40.557Z,6.80
2022-08-14T12:11:44.266Z,5.13
2022-08-14T12:15:00.158Z,6.85
2022-08-14T12:17:58.220Z,5.93
2022-08-14T12:20:59.955Z,5.30
2022-08-14T12:24:09.599Z,5.00
2022-08-14T12:27:53.324Z,6.03
2022-08-14T12:30:53.574Z,7.10
2022-08-14T12:34:10.259Z,5.88
2022-08-14T12:37:09.181Z,6.55
2022-08-14T12:40:14.122Z,4.82
2022-08-14T12:43:19.204Z,5.45
2022-08-14T12:46:27.198Z,6.57
2022-08-14T12:49:26.017Z,7.17
2022-08-14T12:52:45.401Z,6.57
2022-08-14T12:56:22.417Z,6.40
2022-08-14T12:59:18.516Z,7.30
2022-08-14T13:02:39.174Z,5.18
2022-08-14T13:05:40.127Z,6.25
2022-08-14T13:08:37.756Z,6.82
2022-08-14T13:11:58.825Z,5.18
2022-08-14T13:15:12.588Z,6.18
2022-08-14T13:18:14.261Z,4.93
2022-08-14T13:21:14.550Z,6.88
2022-08-14T13:24:15.705Z,7.20
2022-08-14T13:27:13.018Z,7.43
2022-08-14T13:30:23.435Z,6.47
2022-08-14T13:33:21.868Z,7.55
2022-08-14T13:36:24.151Z,7.22
2022-08-14T13:39:36.677Z,6.32
2022-08-14T13:42:36.472Z,6.68
2022-08-14T13:45:59.929Z,6.90
2022-08-14T13:48:51.434Z,5.93
2022-08-14T13:51:54.332Z,5.90
2022-08-14T13:54:55.623Z,7.88
2022-08-14T13:58:03.182Z,7.60
2022-08-14T14:01:02.157Z,6.28
2022-08-14T14:04:05.195Z,7.68
2022-08-14T14:07:12.963Z,6.93
2022-08-14T14:10:10.246Z,7.47
2022-08-14T14:13:07.610Z,6.95
2022-08-14T14:16:06.275Z,7.25
2022-08-14T14:19:09.480Z,7.13
2022-08-14T14:22:07.269Z,6.30
2022-08-14T14:25:07.215Z,6.03
2022-08-14T14:28:04.493Z,5.82
2022-08-14T14:31:05.945Z,5.32
2022-08-14T14:34:12.575Z,6.25
2022-08-14T14:37:24.086Z,6.90
2022-08-14T14:40:54.821Z,7.20
2022-08-14T14:43:44.869Z,6.88
2022-08-14T14:46:51.009Z,6.88
2022-08-14T14:49:55.013Z,5.20
2022-08-14T14:52:53.989Z,6.72
2022-08-14T14:56:50.917Z,5.72
2022-08-14T14:59:27.918Z,7.18
2022-08-14T15:02:38.126Z,6.28
2022-08-14T15:05:35.966Z,6.47
2022-08-14T15:08:55.755Z,5.68
2022-08-14T15:11:50.170Z,7.05
2022-08-14T15:14:57.108Z,7.68
2022-08-14T15:17:55.122Z,6.78
2022-08-14T15:21:02.845Z,6.38
2022-08-14T15:23:59.752Z,5.63
2022-08-14T15:26:59.809Z,6.30
2022-08-14T15:29:56.895Z,6.13
2022-08-14T15:32:55.917Z,6.53
2022-08-14T15:35:53.408Z,7.15
2022-08-14T15:38:56.847Z,5.78
2022-08-14T15:41:53.670Z,7.10
2022-08-14T15:44:57.252Z,6.93
2022-08-14T15:47:56.399Z,6.88
2022-08-14T15:50:54.949Z,6.82
2022-08-14T15:53:51.872Z,7.40
2022-08-14T15:57:01.013Z,6.82
2022-08-14T16:00:21.387Z,7.20
2022-08-14T16:03:35.774Z,6.55
2022-08-14T16:06:34.295Z,6.57
2022-08-14T16:09:31.807Z,6.47
2022-08-14T16:12:40.322Z,6.45
2022-08-14T16:15:41.600Z,6.93
2022-08-14T16:18:51.069Z,6.80
2022-08-14T16:22:01.823Z,6.30
2022-08-14T16:25:08.355Z,6.53
2022-08-14T16:28:07.445Z,7.07
2022-08-14T16:31:07.603Z,6.60
2022-08-14T16:34:43.911Z,6.57
2022-08-14T16:40:25.497Z,6.43
2022-08-14T16:40:44.320Z,6.70
2022-08-14T16:43:44.116Z,7.22
2022-08-14T16:46:46.665Z,7.15
2022-08-14T16:50:04.754Z,6.97
2022-08-14T16:53:07.416Z,7.27
2022-08-14T16:56:23.295Z,6.60
2022-08-14T16:59:30.615Z,7.13
2022-08-14T17:02:42.925Z,6.47
2022-08-14T17:05:43.283Z,7.05
2022-08-14T17:08:46.285Z,7.18
2022-08-14T17:12:07.200Z,7.18
2022-08-14T17:15:11.173Z,6.65
2022-08-14T17:18:18.890Z,6.65
2022-08-14T17:21:37.346Z,7.28
2022-08-14T17:24:57.175Z,7.00
2022-08-14T17:28:52.161Z,7.35
2022-08-14T17:31:57.904Z,7.50
2022-08-14T17:34:54.439Z,7.53
2022-08-14T17:41:33.022Z,7.30
2022-08-14T17:44:45.185Z,6.85
2022-08-14T17:47:46.106Z,7.35
2022-08-14T17:54:02.628Z,7.22
2022-08-14T17:57:10.434Z,8.10
2022-08-14T18:00:14.891Z,7.55
2022-08-14T18:03:20.195Z,7.28
2022-08-14T18:06:40.199Z,7.25
2022-08-14T18:09:57.143Z,7.68
2022-08-14T18:12:56.363Z,7.90
2022-08-14T18:15:55.952Z,7.60
2022-08-14T18:18:53.152Z,7.15
2022-08-14T18:21:57.441Z,8.13
2022-08-14T18:24:54.599Z,8.43
2022-08-14T18:27:52.813Z,8.93
2022-08-14T18:31:19.860Z,8.60
2022-08-14T18:34:31.849Z,8.20
2022-08-14T18:37:31.224Z,8.65
2022-08-14T18:40:35.179Z,9.32
2022-08-14T18:43:44.845Z,9.13
2022-08-14T18:47:08.470Z,8.20
2022-08-14T18:53:34.370Z,7.65
2022-08-14T18:57:05.120Z,7.78
2022-08-14T19:00:33.810Z,7.95
2022-08-14T19:03:36.411Z,8.80
2022-08-14T19:06:44.612Z,8.77
2022-08-14T19:10:07.867Z,8.48
2022-08-14T19:13:11.825Z,8.82
2022-08-14T19:16:17.395Z,8.18
2022-08-14T19:19:15.510Z,8.55
2022-08-14T19:22:29.436Z,7.95
2022-08-14T19:25:51.656Z,8.63
2022-08-14T19:28:49.551Z,8.43
2022-08-14T19:31:55.731Z,8.95
2022-08-14T19:34:53.742Z,9.10
2022-08-14T19:37:57.083Z,8.95
2022-08-14T19:40:54.361Z,8.52
2022-08-14T19:43:57.050Z,9.05
2022-08-14T19:47:01.006Z,9.00
2022-08-14T19:50:07.704Z,8.90
2022-08-14T19:53:17.411Z,9.52
2022-08-14T19:56:15.245Z,9.63
2022-08-14T19:59:26.466Z,8.18
2022-08-14T20:02:37.442Z,9.27
2022-08-14T20:05:43.062Z,8.93
2022-08-14T20:11:00.561Z,7.95
2022-08-14T20:12:28.285Z,9.02
2022-08-14T20:15:47.405Z,8.95
2022-08-14T20:18:48.622Z,10.27
2022-08-14T20:22:00.800Z,8.52
2022-08-14T20:25:19.280Z,9.30
2022-08-14T20:28:29.713Z,7.80
2022-08-14T20:31:37.381Z,9.07
2022-08-14T20:34:38.694Z,9.60
2022-08-14T20:37:48.192Z,9.30
2022-08-14T20:40:59.831Z,9.35
2022-08-14T20:44:20.748Z,8.90
2022-08-14T20:47:18.785Z,8.80
2022-08-14T20:50:29.053Z,9.35
2022-08-14T20:53:35.475Z,9.25
2022-08-14T20:56:37.667Z,9.50
2022-08-14T20:59:43.486Z,8.95
2022-08-14T21:02:49.999Z,9.63
2022-08-14T21:05:47.847Z,9.07
2022-08-14T21:08:58.728Z,9.32
2022-08-14T21:12:02.853Z,9.50
2022-08-14T21:15:00.683Z,9.32
2022-08-14T21:17:57.748Z,8.88
2022-08-14T21:20:55.737Z,9.60
2022-08-14T21:23:56.464Z,9.52
2022-08-14T21:27:02.103Z,9.32
2022-08-14T21:30:09.797Z,8.90
2022-08-14T21:33:09.052Z,9.18
2022-08-14T21:36:12.134Z,8.70
2022-08-14T21:39:19.461Z,9.10
2022-08-14T21:42:17.417Z,9.52
2022-08-14T21:45:14.606Z,9.77
2022-08-14T21:48:13.392Z,9.63
2022-08-14T21:51:54.028Z,9.95
2022-08-14T21:54:49.423Z,9.77
2022-08-14T21:58:44.709Z,9.30
2022-08-14T22:01:06.461Z,8.57
2022-08-14T22:04:32.836Z,9.23
2022-08-14T22:07:29.082Z,8.80
2022-08-14T22:10:26.526Z,9.18
2022-08-14T22:13:32.375Z,8.68
2022-08-14T22:17:03.589Z,8.05
2022-08-14T22:19:47.405Z,8.68
2022-08-14T22:22:55.835Z,7.55
2022-08-14T22:25:55.113Z,8.65
2022-08-14T22:28:55.732Z,8.82
2022-08-14T22:31:54.269Z,8.60
2022-08-14T22:34:51.503Z,7.55
2022-08-14T22:37:48.806Z,9.80
2022-08-14T22:41:26.595Z,8.55
2022-08-14T22:44:39.115Z,8.50
2022-08-14T22:47:40.727Z,8.63
2022-08-14T22:50:48.840Z,9.07
2022-08-14T22:53:52.497Z,8.15
2022-08-14T22:56:50.705Z,8.55
2022-08-14T22:59:47.628Z,8.40
2022-08-14T23:02:46.427Z,8.75
2022-08-14T23:05:52.491Z,8.00
2022-08-14T23:09:00.190Z,7.22
2022-08-14T23:12:28.312Z,8.70
2022-08-14T23:15:29.807Z,8.63
2022-08-14T23:18:29.459Z,8.85
2022-08-14T23:21:28.802Z,8.15
2022-08-14T23:24:26.835Z,8.70
2022-08-14T23:27:31.696Z,8.98
2022-08-14T23:30:41.484Z,9.18
2022-08-14T23:33:52.116Z,8.55
2022-08-14T23:36:56.892Z,8.80
2022-08-14T23:39:54.401Z,8.88
2022-08-14T23:43:11.228Z,8.98
2022-08-14T23:46:13.097Z,8.70
2022-08-14T23:49:12.441Z,8.73
2022-08-14T23:52:51.192Z,8.55
2022-08-14T23:55:32.886Z,8.60
2022-08-14T23:58:30.209Z,8.48
